Time;durP1;ratioP1;P1;durP2;ratioP2;P2;SDS_P1;SDS_P2;PMS_P1;PMS_P2;Temp;Humidity;BMP_temperature;BMP_pressure;BME280_temperature;BME280_humidity;BME280_pressure;Samples;Min_cycle;Max_cycle;Signal;HPM_P1;HPM_P2
2023/10/29 00:01:04;;;;;;;3.37;3.07;;;;;;;9.54;100.00;99810.09;6233195;28;23021;-76
2023/10/29 00:04:25;;;;;;;4.73;4.03;;;;;;;9.59;100.00;99809.63;6223048;28;20224;-75
2023/10/29 00:07:46;;;;;;;3.67;2.90;;;;;;;9.68;100.00;99804.13;6230270;28;20587;-75
2023/10/29 00:11:12;;;;;;;6.83;5.10;;;;;;;9.49;100.00;99790.88;6232442;28;20920;-72
2023/10/29 00:14:33;;;;;;;6.13;3.83;;;;;;;9.57;100.00;99782.84;6226028;28;20221;-74
2023/10/29 00:17:54;;;;;;;3.73;3.40;;;;;;;9.63;100.00;99784.94;6234424;28;20228;-75
2023/10/29 00:21:15;;;;;;;3.93;3.33;;;;;;;9.62;100.00;99780.53;6255249;28;20231;-75
2023/10/29 00:24:36;;;;;;;2.97;2.77;;;;;;;9.57;100.00;99771.28;6258607;28;20603;-75
2023/10/29 00:27:58;;;;;;;4.03;3.23;;;;;;;9.56;100.00;99767.72;6223331;28;20228;-75
2023/10/29 00:31:20;;;;;;;6.57;2.97;;;;;;;9.53;100.00;99764.50;6222532;28;20591;-76
2023/10/29 00:34:40;;;;;;;5.07;3.30;;;;;;;9.55;100.00;99746.38;6224528;28;20228;-75
2023/10/29 00:38:02;;;;;;;3.13;2.73;;;;;;;9.68;100.00;99721.72;6235141;28;20319;-75
2023/10/29 00:41:23;;;;;;;3.93;2.73;;;;;;;9.65;100.00;99709.44;6236648;28;20251;-76
2023/10/29 00:44:46;;;;;;;3.60;3.03;;;;;;;9.75;100.00;99709.31;6231270;28;20253;-75
2023/10/29 00:48:08;;;;;;;3.43;3.13;;;;;;;9.66;100.00;99719.19;6228216;28;20228;-74
2023/10/29 00:51:29;;;;;;;3.07;2.87;;;;;;;9.62;100.00;99710.59;6230637;28;20225;-74
2023/10/29 00:54:50;;;;;;;4.50;3.90;;;;;;;9.79;100.00;99713.38;6234271;28;20586;-74
2023/10/29 00:58:12;;;;;;;4.50;3.30;;;;;;;9.72;100.00;99734.69;6231210;28;20233;-75
2023/10/29 01:01:35;;;;;;;2.50;2.30;;;;;;;9.76;100.00;99727.16;6228262;28;20229;-76
2023/10/29 01:04:56;;;;;;;2.03;1.93;;;;;;;9.64;100.00;99711.28;6228046;28;20228;-75
2023/10/29 01:08:17;;;;;;;3.07;2.87;;;;;;;9.64;100.00;99688.91;6222362;28;20313;-75
2023/10/29 01:11:38;;;;;;;5.97;2.73;;;;;;;9.64;100.00;99660.16;6258606;28;20235;-75
2023/10/29 01:14:59;;;;;;;3.53;2.80;;;;;;;9.54;100.00;99689.03;6259326;28;20690;-75
2023/10/29 01:18:21;;;;;;;3.40;2.30;;;;;;;9.62;100.00;99683.69;6236649;28;20665;-75
2023/10/29 01:21:42;;;;;;;4.97;2.67;;;;;;;9.58;100.00;99694.91;6259640;28;20231;-74
2023/10/29 01:25:08;;;;;;;3.63;2.77;;;;;;;9.54;100.00;99680.94;6232449;28;20500;-75
2023/10/29 01:28:28;;;;;;;3.47;2.67;;;;;;;9.68;100.00;99684.06;6220726;28;20233;-74
2023/10/29 01:31:49;;;;;;;2.47;2.00;;;;;;;9.70;100.00;99673.97;6245626;28;20232;-73
2023/10/29 01:35:11;;;;;;;2.83;2.33;;;;;;;9.61;100.00;99671.25;6243961;28;20535;-74
2023/10/29 01:38:33;;;;;;;2.50;2.30;;;;;;;9.60;100.00;99672.25;6253364;28;20235;-74
2023/10/29 01:41:55;;;;;;;2.87;2.67;;;;;;;9.59;100.00;99664.34;6240760;28;20606;-75
2023/10/29 01:45:17;;;;;;;3.03;2.73;;;;;;;9.64;100.00;99662.00;6260138;28;20239;-74
2023/10/29 01:48:38;;;;;;;3.07;2.77;;;;;;;9.68;100.00;99657.97;6250153;28;20232;-74
2023/10/29 01:52:00;;;;;;;3.07;2.23;;;;;;;9.65;100.00;99653.78;6252924;28;20236;-75
2023/10/29 01:55:21;;;;;;;2.73;2.13;;;;;;;9.68;100.00;99661.50;6248101;28;20263;-75
2023/10/29 01:58:42;;;;;;;3.20;2.97;;;;;;;9.63;100.00;99650.41;6250731;28;20307;-74
2023/10/29 02:02:03;;;;;;;3.23;2.27;;;;;;;9.57;100.00;99640.25;6243410;28;20231;-75
2023/10/29 02:05:24;;;;;;;2.60;2.27;;;;;;;9.67;100.00;99634.78;6250331;28;20614;-74
2023/10/29 02:08:46;;;;;;;3.80;2.57;;;;;;;9.59;100.00;99635.59;6250194;28;20228;-74
2023/10/29 02:12:09;;;;;;;2.13;2.03;;;;;;;9.60;100.00;99628.34;6251028;28;20231;-75
2023/10/29 02:15:29;;;;;;;4.30;2.07;;;;;;;9.67;100.00;99624.00;6246224;28;20227;-74
2023/10/29 02:18:50;;;;;;;4.00;3.10;;;;;;;9.58;100.00;99615.06;6247764;28;20225;-72
2023/10/29 02:22:12;;;;;;;3.37;2.70;;;;;;;9.71;100.00;99601.16;6237141;28;20252;-74
2023/10/29 02:25:33;;;;;;;2.97;2.57;;;;;;;9.64;100.00;99589.34;6236104;28;20303;-74
2023/10/29 02:28:54;;;;;;;2.47;2.27;;;;;;;9.75;100.00;99589.06;6248729;28;20772;-74
2023/10/29 02:32:15;;;;;;;2.63;2.17;;;;;;;9.80;100.00;99558.97;6247952;28;20224;-75
2023/10/29 02:35:36;;;;;;;2.50;2.20;;;;;;;9.76;100.00;99571.06;6249009;28;20616;-74
2023/10/29 02:38:59;;;;;;;2.27;2.07;;;;;;;9.83;100.00;99562.16;6247763;28;20327;-74
2023/10/29 02:42:20;;;;;;;3.10;2.27;;;;;;;9.76;100.00;99557.63;6251803;28;20220;-74
2023/10/29 02:45:42;;;;;;;2.93;2.70;;;;;;;9.74;100.00;99540.78;6249510;28;20232;-74
2023/10/29 02:49:03;;;;;;;2.87;2.63;;;;;;;9.73;100.00;99536.41;6255627;28;20684;-73
2023/10/29 02:52:24;;;;;;;4.83;2.20;;;;;;;9.73;100.00;99525.63;6260584;28;20220;-73
2023/10/29 02:55:47;;;;;;;4.17;2.73;;;;;;;9.75;100.00;99524.47;6260348;28;20276;-74
2023/10/29 02:59:07;;;;;;;3.07;2.87;;;;;;;9.69;100.00;99517.06;6255643;28;20236;-73
2023/10/29 03:02:28;;;;;;;2.30;2.10;;;;;;;9.82;100.00;99514.75;6249927;28;20220;-74
2023/10/29 03:05:49;;;;;;;2.40;2.20;;;;;;;9.81;100.00;99493.34;6244717;28;20236;-73
2023/10/29 03:09:10;;;;;;;2.73;1.80;;;;;;;9.85;100.00;99500.94;6251574;28;20231;-74
2023/10/29 03:12:32;;;;;;;3.37;2.00;;;;;;;9.82;100.00;99493.22;6253232;28;20270;-74
2023/10/29 03:15:54;;;;;;;3.23;2.37;;;;;;;9.79;100.00;99492.69;6258883;28;20232;-74
2023/10/29 03:19:15;;;;;;;2.93;2.50;;;;;;;9.80;100.00;99487.16;6250476;28;20666;-74
2023/10/29 03:22:36;;;;;;;2.30;1.83;;;;;;;9.86;100.00;99480.25;6241225;28;20260;-74
2023/10/29 03:26:01;;;;;;;2.70;2.50;;;;;;;9.97;100.00;99467.31;6254161;28;20224;-76
2023/10/29 03:29:23;;;;;;;2.30;2.10;;;;;;;9.98;100.00;99460.09;6253771;28;20239;-75
2023/10/29 03:32:45;;;;;;;3.40;2.17;;;;;;;9.95;100.00;99446.97;6251671;28;20227;-78
2023/10/29 03:36:07;;;;;;;5.23;2.40;;;;;;;9.92;100.00;99434.69;6255102;28;20244;-78
2023/10/29 03:39:30;;;;;;;2.23;2.03;;;;;;;9.93;100.00;99428.28;6265977;28;20657;-78
2023/10/29 03:42:51;;;;;;;3.10;2.20;;;;;;;9.96;100.00;99421.72;6223250;28;20217;-77
2023/10/29 03:46:13;;;;;;;2.10;1.90;;;;;;;9.98;100.00;99417.00;6231766;28;20233;-77
2023/10/29 03:49:34;;;;;;;2.47;2.27;;;;;;;10.02;100.00;99403.06;6226165;28;20315;-76
2023/10/29 03:52:55;;;;;;;2.13;2.03;;;;;;;9.98;100.00;99406.25;6228161;28;20228;-76
2023/10/29 03:56:16;;;;;;;2.10;1.90;;;;;;;9.93;100.00;99414.00;6236607;28;20229;-77
2023/10/29 03:59:36;;;;;;;2.50;2.30;;;;;;;10.02;100.00;99400.34;6226531;28;20593;-76
2023/10/29 04:03:00;;;;;;;2.97;2.03;;;;;;;9.95;100.00;99399.34;6230033;28;20228;-75
2023/10/29 04:06:22;;;;;;;2.37;2.17;;;;;;;9.97;100.00;99391.13;6226436;28;20225;-76
2023/10/29 04:09:43;;;;;;;1.70;1.37;;;;;;;9.99;100.00;99381.00;6230681;28;20236;-76
2023/10/29 04:13:05;;;;;;;2.03;1.80;;;;;;;10.02;100.00;99381.50;6227717;28;20220;-74
2023/10/29 04:16:26;;;;;;;2.70;2.43;;;;;;;10.06;100.00;99377.47;6234543;28;20493;-75
2023/10/29 04:19:48;;;;;;;3.83;2.40;;;;;;;10.06;100.00;99373.94;6230385;28;20323;-76
2023/10/29 04:23:09;;;;;;;2.70;2.20;;;;;;;10.06;100.00;99382.00;6230029;28;20244;-74
2023/10/29 04:26:31;;;;;;;2.83;2.63;;;;;;;10.08;100.00;99380.81;6231396;28;20220;-74
2023/10/29 04:29:52;;;;;;;4.87;2.13;;;;;;;10.11;100.00;99385.06;6223374;28;20236;-74
2023/10/29 04:33:12;;;;;;;2.37;2.10;;;;;;;10.12;100.00;99354.44;6231482;28;20233;-74
2023/10/29 04:36:34;;;;;;;2.33;2.13;;;;;;;10.19;100.00;99368.91;6233855;28;20225;-74
2023/10/29 04:39:55;;;;;;;2.83;2.63;;;;;;;10.20;100.00;99357.94;6231633;28;20229;-76
2023/10/29 04:43:16;;;;;;;5.03;2.90;;;;;;;10.25;100.00;99360.13;6231046;28;20550;-74
2023/10/29 04:46:37;;;;;;;1.87;1.77;;;;;;;10.27;100.00;99350.03;6235078;28;20232;-75
2023/10/29 04:49:57;;;;;;;2.50;2.17;;;;;;;10.32;100.00;99339.59;6234042;28;20236;-74
2023/10/29 04:53:20;;;;;;;1.87;1.77;;;;;;;10.35;100.00;99333.84;6230378;28;20666;-75
2023/10/29 04:56:41;;;;;;;2.87;2.23;;;;;;;10.36;100.00;99333.69;6229262;28;20236;-75
2023/10/29 05:00:02;;;;;;;2.67;2.47;;;;;;;10.42;100.00;99334.84;6227547;28;20229;-75
2023/10/29 05:03:23;;;;;;;2.03;1.70;;;;;;;10.42;100.00;99318.69;6232156;28;20232;-74
2023/10/29 05:06:44;;;;;;;6.23;2.60;;;;;;;10.42;100.00;99329.47;6256708;28;20229;-74
2023/10/29 05:10:07;;;;;;;2.10;2.00;;;;;;;10.48;100.00;99315.28;6255994;28;20220;-74
2023/10/29 05:13:28;;;;;;;1.80;1.70;;;;;;;10.52;100.00;99308.53;6249242;28;20330;-74
2023/10/29 05:16:49;;;;;;;2.77;2.23;;;;;;;10.49;100.00;99299.97;6254626;28;20534;-74
2023/10/29 05:20:10;;;;;;;2.93;2.00;;;;;;;10.48;100.00;99291.03;6262587;28;20231;-75
2023/10/29 05:23:32;;;;;;;2.83;2.53;;;;;;;10.48;100.00;99285.66;6252823;28;20310;-73
2023/10/29 05:26:54;;;;;;;4.43;2.10;;;;;;;10.49;100.00;99281.97;6259981;28;22151;-75
2023/10/29 05:30:15;;;;;;;1.80;1.70;;;;;;;10.50;100.00;99272.84;6252179;28;20227;-75
2023/10/29 05:33:37;;;;;;;1.80;1.70;;;;;;;10.53;100.00;99261.75;6251812;28;20232;-75
2023/10/29 05:36:58;;;;;;;1.83;1.73;;;;;;;10.53;100.00;99267.13;6256398;28;20616;-75
2023/10/29 05:40:18;;;;;;;2.20;2.00;;;;;;;10.54;100.00;99281.41;6257600;28;20227;-75
2023/10/29 05:43:40;;;;;;;2.07;1.87;;;;;;;10.57;100.00;99278.38;6252774;28;20231;-74
2023/10/29 05:47:01;;;;;;;3.73;2.27;;;;;;;10.60;100.00;99278.03;6260704;28;20594;-75
2023/10/29 05:50:22;;;;;;;3.00;2.10;;;;;;;10.64;100.00;99285.56;6258992;28;20258;-76
2023/10/29 05:53:44;;;;;;;2.13;1.80;;;;;;;10.65;100.00;99281.03;6252338;28;20231;-76
2023/10/29 05:57:05;;;;;;;1.90;1.77;;;;;;;10.67;100.00;99273.63;6250940;28;20232;-75
2023/10/29 06:00:28;;;;;;;1.70;1.60;;;;;;;10.71;100.00;99272.25;6245790;28;20540;-75
2023/10/29 06:03:48;;;;;;;3.93;2.47;;;;;;;10.75;100.00;99282.50;6243652;28;20227;-75
2023/10/29 06:07:09;;;;;;;2.33;2.17;;;;;;;10.78;100.00;99286.72;6253591;28;20229;-76
2023/10/29 06:10:30;;;;;;;1.67;1.50;;;;;;;10.78;100.00;99284.84;6253494;28;20251;-77
2023/10/29 06:13:53;;;;;;;2.33;1.47;;;;;;;10.80;100.00;99279.28;6249524;28;20832;-77
2023/10/29 06:17:16;;;;;;;2.10;1.50;;;;;;;10.82;100.00;99272.72;6250458;28;20244;-77
2023/10/29 06:20:40;;;;;;;2.77;1.50;;;;;;;10.85;100.00;99290.34;6258297;28;21150;-76
2023/10/29 06:24:01;;;;;;;2.83;2.03;;;;;;;10.90;100.00;99282.59;6266124;28;20668;-76
2023/10/29 06:27:22;;;;;;;2.00;1.37;;;;;;;10.93;100.00;99276.84;6254348;28;20228;-75
2023/10/29 06:30:44;;;;;;;1.40;1.27;;;;;;;11.00;100.00;99275.94;6260247;28;20672;-77
2023/10/29 06:34:06;;;;;;;1.70;1.30;;;;;;;11.02;100.00;99263.13;6258874;28;20271;-77
2023/10/29 06:37:27;;;;;;;2.43;2.23;;;;;;;11.04;100.00;99266.50;6256647;28;20236;-76
2023/10/29 06:40:47;;;;;;;1.83;1.37;;;;;;;11.09;100.00;99268.66;6257371;28;20232;-76
2023/10/29 06:44:08;;;;;;;1.50;1.40;;;;;;;11.12;100.00;99268.28;6248589;28;20519;-74
2023/10/29 06:47:29;;;;;;;2.63;1.50;;;;;;;11.17;100.00;99260.50;6239447;28;20225;-74
2023/10/29 06:50:52;;;;;;;2.13;1.10;;;;;;;11.21;100.00;99262.66;6258004;28;20243;-75
2023/10/29 06:54:13;;;;;;;1.60;1.50;;;;;;;11.26;100.00;99254.03;6255520;28;20239;-77
2023/10/29 06:57:34;;;;;;;2.77;1.40;;;;;;;11.29;100.00;99264.44;6253596;28;20724;-75
2023/10/29 07:00:55;;;;;;;1.43;1.33;;;;;;;11.44;100.00;99265.34;6246395;28;20232;-75
2023/10/29 07:04:16;;;;;;;1.43;1.33;;;;;;;11.57;100.00;99260.19;6256997;28;20332;-75
2023/10/29 07:07:38;;;;;;;1.87;1.10;;;;;;;11.71;100.00;99250.47;6254377;28;20227;-74
2023/10/29 07:10:59;;;;;;;1.13;1.03;;;;;;;11.64;100.00;99258.41;6252674;28;20223;-73
2023/10/29 07:14:20;;;;;;;1.30;1.20;;;;;;;11.58;100.00;99269.09;6254041;28;20512;-75
2023/10/29 07:17:41;;;;;;;2.17;1.43;;;;;;;11.59;100.00;99249.19;6243835;28;20247;-76
2023/10/29 07:21:02;;;;;;;1.90;1.40;;;;;;;11.63;100.00;99266.72;6239920;28;20247;-75
2023/10/29 07:24:24;;;;;;;1.70;1.57;;;;;;;11.68;100.00;99288.63;6258316;28;20233;-75
2023/10/29 07:27:45;;;;;;;0.93;0.90;;;;;;;11.72;100.00;99271.06;6252743;28;20236;-75
2023/10/29 07:31:06;;;;;;;0.97;0.97;;;;;;;11.74;100.00;99290.59;6255654;28;20322;-75
2023/10/29 07:34:27;;;;;;;2.60;1.33;;;;;;;11.80;100.00;99276.38;6253819;28;20228;-75
2023/10/29 07:37:48;;;;;;;1.50;1.20;;;;;;;11.87;100.00;99270.03;6259626;28;20247;-76
2023/10/29 07:41:10;;;;;;;0.97;0.80;;;;;;;12.03;100.00;99272.59;6235854;28;20291;-76
2023/10/29 07:44:31;;;;;;;2.10;1.10;;;;;;;12.10;100.00;99269.97;6226560;28;20256;-76
2023/10/29 07:47:52;;;;;;;1.63;1.20;;;;;;;12.12;100.00;99284.13;6269757;28;22185;-76
2023/10/29 07:51:13;;;;;;;0.80;0.80;;;;;;;12.15;100.00;99261.31;6254573;28;20331;-77
2023/10/29 07:54:34;;;;;;;2.50;0.87;;;;;;;12.19;100.00;99266.16;6252446;28;20567;-78
2023/10/29 07:57:56;;;;;;;3.67;3.27;;;;;;;12.47;100.00;99272.59;6238462;28;20697;-75
2023/10/29 08:01:18;;;;;;;351.30;319.43;;;;;;;13.07;100.00;99264.22;6251294;28;20243;-72
2023/10/29 08:04:38;;;;;;;13.40;12.20;;;;;;;12.82;100.00;99252.88;6249831;28;20274;-76
2023/10/29 08:08:01;;;;;;;238.67;170.37;;;;;;;13.23;100.00;99255.00;6257219;28;20232;-72
2023/10/29 08:11:22;;;;;;;152.80;136.80;;;;;;;13.29;100.00;99259.63;6259695;28;20217;-75
2023/10/29 08:14:44;;;;;;;383.60;349.27;;;;;;;13.52;100.00;99265.69;6251633;28;20239;-71
2023/10/29 08:18:06;;;;;;;474.20;352.13;;;;;;;13.89;100.00;99265.41;6256482;28;20226;-75
2023/10/29 08:21:26;;;;;;;138.00;127.37;;;;;;;13.88;100.00;99250.16;6247794;28;20240;-75
2023/10/29 08:24:48;;;;;;;7.07;6.40;;;;;;;13.60;100.00;99262.88;6235286;28;20559;-72
2023/10/29 08:28:09;;;;;;;2.03;1.83;;;;;;;13.37;100.00;99265.75;6257871;28;20266;-76
2023/10/29 08:31:31;;;;;;;2.17;1.00;;;;;;;13.12;100.00;99260.94;6253815;28;20219;-73
2023/10/29 08:34:52;;;;;;;1.00;0.70;;;;;;;13.09;100.00;99277.53;6252034;28;20232;-76
2023/10/29 08:38:12;;;;;;;1.20;1.10;;;;;;;13.09;100.00;99264.00;6266005;28;20704;-75
2023/10/29 08:41:34;;;;;;;1.50;1.10;;;;;;;13.36;100.00;99280.34;6258053;28;20251;-76
2023/10/29 08:44:56;;;;;;;1.27;0.70;;;;;;;13.51;100.00;99293.81;6253929;28;20228;-76
2023/10/29 08:48:18;;;;;;;1.00;0.83;;;;;;;13.77;100.00;99279.69;6258167;28;20235;-75
2023/10/29 08:51:39;;;;;;;2.00;1.20;;;;;;;14.49;100.00;99278.34;6245212;28;20235;-76
2023/10/29 08:55:00;;;;;;;1.17;1.03;;;;;;;16.02;100.00;99254.91;6259427;28;20318;-75
2023/10/29 08:58:21;;;;;;;2.83;2.00;;;;;;;17.03;100.00;99255.03;6253371;28;20255;-76
2023/10/29 09:01:42;;;;;;;0.80;0.80;;;;;;;19.36;100.00;99254.09;6253970;28;20235;-76
2023/10/29 09:05:05;;;;;;;0.93;0.68;;;;;;;19.90;100.00;99258.53;6250303;28;20323;-76
2023/10/29 09:08:26;;;;;;;1.45;1.20;;;;;;;19.74;100.00;99264.66;6254237;28;20545;-76
2023/10/29 09:11:47;;;;;;;1.20;0.70;;;;;;;22.08;100.00;99255.44;6250184;28;20235;-76
2023/10/29 09:15:10;;;;;;;1.75;0.50;;;;;;;21.78;100.00;99262.31;6230519;28;20256;-76
2023/10/29 09:18:31;;;;;;;1.15;1.00;;;;;;;23.68;88.35;99250.41;6226145;28;20228;-76
2023/10/29 09:21:53;;;;;;;1.35;0.40;;;;;;;22.98;87.40;99277.94;6220453;28;20623;-76
2023/10/29 09:25:14;;;;;;;2.10;0.95;;;;;;;21.27;99.09;99301.66;6247144;28;20236;-76
2023/10/29 09:28:35;;;;;;;2.55;0.88;;;;;;;21.78;96.12;99279.59;6224810;28;20216;-76
2023/10/29 09:31:56;;;;;;;1.15;0.80;;;;;;;24.10;82.84;99288.25;6226195;28;20236;-77
2023/10/29 09:35:17;;;;;;;1.45;0.80;;;;;;;21.53;90.69;99286.53;6224491;28;20248;-74
2023/10/29 09:38:39;;;;;;;3.90;0.95;;;;;;;22.67;90.89;99305.25;6222992;28;20228;-79
2023/10/29 09:42:05;;;;;;;2.17;0.80;;;;;;;22.60;81.05;99285.38;6229907;28;20233;-76
2023/10/29 09:45:27;;;;;;;0.93;0.80;;;;;;;19.15;100.00;99299.13;6227294;28;20224;-77
2023/10/29 09:48:50;;;;;;;0.98;0.88;;;;;;;19.23;100.00;99299.88;6230911;28;20228;-77
2023/10/29 09:52:11;;;;;;;1.95;0.80;;;;;;;21.77;92.60;99275.19;6249673;28;20248;-77
2023/10/29 09:55:34;;;;;;;1.40;1.00;;;;;;;21.52;94.87;99280.22;6232711;28;20731;-77
2023/10/29 09:58:55;;;;;;;1.23;0.90;;;;;;;21.82;87.20;99285.47;6250179;28;20232;-77
2023/10/29 10:02:16;;;;;;;1.35;0.88;;;;;;;19.45;100.00;99287.41;6252345;28;20231;-76
2023/10/29 10:05:40;;;;;;;1.95;1.38;;;;;;;17.71;100.00;99304.34;6247109;28;20227;-76
2023/10/29 10:09:02;;;;;;;1.70;1.23;;;;;;;21.36;96.38;99284.56;6252044;28;20239;-76
2023/10/29 10:12:25;;;;;;;1.95;0.60;;;;;;;19.23;98.14;99311.66;6256935;28;20227;-75
2023/10/29 10:15:48;;;;;;;0.70;0.60;;;;;;;18.65;100.00;99305.81;6238508;28;20235;-75
2023/10/29 10:19:10;;;;;;;0.65;0.60;;;;;;;17.76;100.00;99286.25;6247586;28;20313;-76
2023/10/29 10:22:35;;;;;;;1.27;0.68;;;;;;;17.21;100.00;99304.16;6257713;28;20256;-76
2023/10/29 10:25:59;;;;;;;1.20;0.60;;;;;;;16.33;100.00;99302.16;6255629;28;20645;-75
2023/10/29 10:29:31;;;;;;;0.93;0.80;;;;;;;16.18;100.00;99306.13;6252769;28;20501;-72
2023/10/29 10:32:52;;;;;;;1.95;0.90;;;;;;;18.72;100.00;99308.47;6243857;28;20250;-75
2023/10/29 10:36:13;;;;;;;4.15;1.45;;;;;;;20.43;98.16;99311.28;6255080;28;20846;-76
2023/10/29 10:39:34;;;;;;;0.95;0.63;;;;;;;17.19;100.00;99329.97;6257028;28;20228;-77
2023/10/29 10:42:56;;;;;;;1.88;1.08;;;;;;;16.25;100.00;99331.44;6259334;28;20228;-74
2023/10/29 10:46:19;;;;;;;1.17;0.70;;;;;;;15.65;100.00;99346.00;6254413;28;20227;-74
2023/10/29 10:49:42;;;;;;;2.10;0.90;;;;;;;15.68;100.00;99348.34;6235690;28;20548;-76
2023/10/29 10:53:05;;;;;;;1.10;0.73;;;;;;;15.42;100.00;99381.66;6232846;28;20233;-75
2023/10/29 10:56:26;;;;;;;0.90;0.73;;;;;;;15.28;100.00;99379.09;6234384;28;20228;-76
2023/10/29 10:59:49;;;;;;;2.00;0.90;;;;;;;15.13;100.00;99396.38;6228357;28;20237;-74
2023/10/29 11:03:12;;;;;;;1.70;0.83;;;;;;;17.18;100.00;99371.88;6227915;28;20673;-76
2023/10/29 11:06:33;;;;;;;2.47;0.65;;;;;;;15.69;100.00;99388.88;6231920;28;20307;-76
2023/10/29 11:09:55;;;;;;;2.72;1.00;;;;;;;18.90;100.00;99372.13;6234558;28;20243;-76
2023/10/29 11:13:20;;;;;;;1.00;0.68;;;;;;;21.07;100.00;99345.09;6247822;28;20239;-75
2023/10/29 11:16:51;;;;;;;1.05;0.50;;;;;;;23.56;81.18;99346.06;6250355;28;20224;-75
2023/10/29 11:20:54;;;;;;;1.30;0.63;;;;;;;21.35;84.70;99356.09;6240860;28;20349;-76
2023/10/29 11:24:18;;;;;;;3.03;0.80;;;;;;;22.79;79.48;99367.28;6242215;28;20509;-77
2023/10/29 11:27:41;;;;;;;1.20;0.60;;;;;;;19.91;88.86;99383.28;6254607;28;20637;-75
2023/10/29 11:31:13;;;;;;;2.30;1.02;;;;;;;17.93;100.00;99393.72;6241253;28;20228;-75
2023/10/29 11:34:34;;;;;;;4.60;1.00;;;;;;;18.13;100.00;99385.38;6233458;28;20773;-74
2023/10/29 11:37:57;;;;;;;2.55;0.80;;;;;;;18.01;100.00;99384.44;6249531;28;20240;-75
2023/10/29 11:41:34;;;;;;;1.20;0.70;;;;;;;19.03;100.00;99379.34;6253661;28;20565;-74
2023/10/29 11:45:33;;;;;;;1.40;0.90;;;;;;;21.21;85.13;99347.34;6252150;28;20232;-74
2023/10/29 11:49:04;;;;;;;1.38;0.90;;;;;;;22.02;76.31;99354.44;6231771;28;20228;-75
2023/10/29 11:52:30;;;;;;;1.85;0.60;;;;;;;22.26;73.43;99369.66;6221049;28;20236;-76
2023/10/29 11:55:53;;;;;;;2.63;0.73;;;;;;;20.38;84.00;99368.66;6232577;28;20309;-75
2023/10/29 11:59:13;;;;;;;1.75;0.90;;;;;;;20.62;80.82;99367.63;6230945;28;20320;-75
2023/10/29 12:02:34;;;;;;;1.83;1.00;;;;;;;20.46;85.63;99379.25;6250454;28;20231;-75
2023/10/29 12:05:56;;;;;;;1.90;0.80;;;;;;;21.77;76.10;99384.94;6256021;28;20224;-75
2023/10/29 12:09:18;;;;;;;2.58;1.17;;;;;;;21.53;79.31;99374.31;6254047;28;20231;-76
2023/10/29 12:12:52;;;;;;;2.85;1.05;;;;;;;22.37;77.35;99374.25;6261062;28;20781;-75
2023/10/29 12:16:14;;;;;;;2.65;0.93;;;;;;;21.49;79.62;99383.00;6230952;28;20228;-75
2023/10/29 12:19:36;;;;;;;1.65;1.00;;;;;;;19.30;93.11;99377.97;6230962;28;20223;-76
2023/10/29 12:22:57;;;;;;;1.42;0.90;;;;;;;18.58;100.00;99386.97;6229256;28;20232;-76
2023/10/29 12:26:18;;;;;;;3.60;1.83;;;;;;;17.83;100.00;99381.63;6232096;28;20595;-76
2023/10/29 12:29:40;;;;;;;3.15;1.00;;;;;;;16.76;100.00;99389.56;6245884;28;20216;-74
2023/10/29 12:33:22;;;;;;;2.63;1.10;;;;;;;16.56;100.00;99380.59;6242707;28;20231;-75
2023/10/29 12:36:48;;;;;;;1.65;1.25;;;;;;;16.78;100.00;99385.59;6255622;28;20227;-75
2023/10/29 12:40:12;;;;;;;3.08;1.40;;;;;;;16.91;100.00;99387.44;6254313;28;20628;-75
2023/10/29 12:43:36;;;;;;;2.05;1.55;;;;;;;16.95;100.00;99391.41;6251332;28;20348;-74
2023/10/29 12:46:58;;;;;;;0.65;0.65;;;;;;;17.01;100.00;99384.28;6227323;28;20233;-74
2023/10/29 12:50:19;;;;;;;0.70;0.70;;;;;;;16.79;100.00;99394.59;6261266;28;20597;-74
2023/10/29 12:53:40;;;;;;;1.50;1.40;;;;;;;17.26;100.00;99391.53;6233003;28;20228;-76
2023/10/29 12:57:09;;;;;;;2.22;1.10;;;;;;;17.32;100.00;99376.19;6227683;28;20634;-75
2023/10/29 13:00:30;;;;;;;2.83;1.27;;;;;;;17.32;100.00;99385.22;6228563;28;20315;-74
2023/10/29 13:03:52;;;;;;;2.20;1.15;;;;;;;17.46;100.00;99375.91;6258191;28;20554;-75
2023/10/29 13:07:14;;;;;;;1.98;1.05;;;;;;;17.54;100.00;99372.97;6260529;28;20268;-75
2023/10/29 13:10:35;;;;;;;3.78;1.20;;;;;;;18.00;100.00;99360.97;6258087;28;20224;-75
2023/10/29 13:13:56;;;;;;;1.50;0.95;;;;;;;17.19;100.00;99374.38;6252680;28;20235;-74
2023/10/29 13:17:17;;;;;;;3.08;1.10;;;;;;;17.02;100.00;99372.34;6257206;28;20236;-75
2023/10/29 13:20:39;;;;;;;1.77;0.90;;;;;;;16.76;100.00;99373.25;6255395;28;20259;-75
2023/10/29 13:24:00;;;;;;;3.35;1.17;;;;;;;16.39;100.00;99376.59;6255499;28;20235;-75
2023/10/29 13:27:21;;;;;;;1.23;1.00;;;;;;;16.22;100.00;99375.34;6240167;28;20228;-74
2023/10/29 13:30:42;;;;;;;1.45;1.15;;;;;;;16.45;100.00;99373.03;6231508;28;20232;-75
2023/10/29 13:34:08;;;;;;;0.90;0.90;;;;;;;16.33;100.00;99385.63;6261465;28;20232;-74
2023/10/29 13:37:30;;;;;;;5.55;1.67;;;;;;;16.11;100.00;99384.13;6242547;28;20232;-75
2023/10/29 13:40:51;;;;;;;4.43;1.07;;;;;;;16.15;100.00;99380.78;6252949;28;20244;-75
2023/10/29 13:44:15;;;;;;;4.95;1.35;;;;;;;16.08;100.00;99370.97;6247382;28;20219;-74
2023/10/29 13:47:36;;;;;;;1.33;0.85;;;;;;;16.21;100.00;99366.34;6254732;28;20314;-75
2023/10/29 13:51:03;;;;;;;1.53;1.00;;;;;;;15.96;100.00;99360.69;6254607;28;20660;-74
2023/10/29 13:54:25;;;;;;;2.93;1.07;;;;;;;16.04;100.00;99372.44;6253176;28;20576;-75
2023/10/29 13:57:46;;;;;;;5.93;1.57;;;;;;;16.11;100.00;99370.53;6256721;28;20228;-75
2023/10/29 14:01:17;;;;;;;2.23;1.30;;;;;;;16.05;100.00;99376.81;6251740;28;20307;-77
2023/10/29 14:04:38;;;;;;;3.60;1.60;;;;;;;16.33;100.00;99393.78;6252626;28;20228;-82
2023/10/29 14:08:00;;;;;;;1.47;1.20;;;;;;;15.97;100.00;99397.72;6248992;28;20240;-78
2023/10/29 14:11:22;;;;;;;7.73;5.13;;;;;;;16.13;100.00;99387.47;6237550;28;20243;-85
2023/10/29 14:14:43;;;;;;;19.37;10.07;;;;;;;15.93;100.00;99387.47;6239031;28;20978;-84
2023/10/29 14:18:04;;;;;;;25.63;20.00;;;;;;;16.34;100.00;99374.50;6229668;28;20236;-74
2023/10/29 14:21:24;;;;;;;2.75;1.90;;;;;;;16.22;100.00;99369.91;6258091;28;20235;-71
2023/10/29 14:24:45;;;;;;;2.37;0.97;;;;;;;15.93;100.00;99369.28;6254460;28;20231;-75
2023/10/29 14:28:07;;;;;;;2.03;1.00;;;;;;;15.78;100.00;99379.50;6245504;28;20235;-73
2023/10/29 14:31:28;;;;;;;1.00;0.90;;;;;;;15.84;100.00;99377.81;6261622;28;21429;-78
2023/10/29 14:34:49;;;;;;;3.47;1.30;;;;;;;15.72;100.00;99383.03;6258933;28;20279;-82
2023/10/29 14:38:10;;;;;;;4.00;1.33;;;;;;;15.63;100.00;99369.84;6255814;28;20504;-83
2023/10/29 14:41:31;;;;;;;1.30;1.20;;;;;;;15.84;100.00;99365.09;6243762;28;20232;-85
2023/10/29 14:44:53;;;;;;;2.80;1.03;;;;;;;15.68;100.00;99354.59;6253313;28;20228;-82
2023/10/29 14:48:14;;;;;;;2.63;1.47;;;;;;;15.61;100.00;99378.19;6270056;28;20221;-82
2023/10/29 14:51:35;;;;;;;4.63;2.03;;;;;;;15.59;100.00;99383.00;6261419;28;20326;-83
2023/10/29 14:54:56;;;;;;;2.77;1.20;;;;;;;15.56;100.00;99388.84;6259570;28;20220;-82
2023/10/29 14:58:17;;;;;;;2.07;1.87;;;;;;;15.57;100.00;99400.53;6265382;28;20239;-82
2023/10/29 15:01:40;;;;;;;2.23;0.87;;;;;;;15.47;100.00;99395.50;6225313;28;20496;-81
2023/10/29 15:05:01;;;;;;;1.03;0.90;;;;;;;15.47;100.00;99394.66;6246467;28;20228;-83
2023/10/29 15:08:23;;;;;;;2.63;1.67;;;;;;;15.34;100.00;99398.13;6256774;28;20224;-80
2023/10/29 15:11:43;;;;;;;3.43;1.20;;;;;;;15.21;100.00;99401.63;6257518;28;20244;-80
2023/10/29 15:15:06;;;;;;;2.80;1.30;;;;;;;15.15;100.00;99398.88;6262189;28;20223;-80
2023/10/29 15:18:29;;;;;;;2.23;1.50;;;;;;;15.15;100.00;99385.31;6259319;28;20231;-80
2023/10/29 15:21:50;;;;;;;7.37;2.43;;;;;;;15.07;100.00;99370.03;6259902;28;20236;-81
2023/10/29 15:25:13;;;;;;;3.90;2.50;;;;;;;15.10;100.00;99360.66;6259740;28;20315;-82
2023/10/29 15:28:34;;;;;;;3.03;2.10;;;;;;;15.08;100.00;99343.75;6252043;28;20224;-80
2023/10/29 15:31:56;;;;;;;2.37;1.53;;;;;;;14.98;100.00;99341.38;6249920;28;20248;-80
2023/10/29 15:35:18;;;;;;;2.67;1.70;;;;;;;14.90;100.00;99346.13;6253684;28;20540;-80
2023/10/29 15:38:41;;;;;;;1.83;1.67;;;;;;;14.93;100.00;99340.31;6253079;28;20228;-81
2023/10/29 15:42:02;;;;;;;1.80;1.07;;;;;;;14.85;100.00;99335.88;6262208;28;20232;-79